sensor_id;sensor_type;location;lat;lon;timestamp;P1;durP1;ratioP1;P2;durP2;ratioP2
40717;SDS011;26405;51.850;-2.246;2022-12-18T00:01:35;16.63;;;7.18;;
40717;SDS011;26405;51.850;-2.246;2022-12-18T00:04:01;18.35;;;6.80;;
40717;SDS011;26405;51.850;-2.246;2022-12-18T00:06:27;15.82;;;6.43;;
40717;SDS011;26405;51.850;-2.246;2022-12-18T00:08:53;16.55;;;6.70;;
40717;SDS011;26405;51.850;-2.246;2022-12-18T00:11:20;16.40;;;6.78;;
40717;SDS011;26405;51.850;-2.246;2022-12-18T00:13:46;20.67;;;10.00;;
40717;SDS011;26405;51.850;-2.246;2022-12-18T00:16:12;23.10;;;11.40;;
40717;SDS011;26405;51.850;-2.246;2022-12-18T00:18:38;23.92;;;13.05;;
40717;SDS011;26405;51.850;-2.246;2022-12-18T00:21:04;29.08;;;14.40;;
40717;SDS011;26405;51.850;-2.246;2022-12-18T00:23:31;17.08;;;7.07;;
40717;SDS011;26405;51.850;-2.246;2022-12-18T00:26:03;19.75;;;8.35;;
40717;SDS011;26405;51.850;-2.246;2022-12-18T00:28:29;17.48;;;6.70;;
40717;SDS011;26405;51.850;-2.246;2022-12-18T00:31:01;20.65;;;7.05;;
40717;SDS011;26405;51.850;-2.246;2022-12-18T00:33:27;16.83;;;6.97;;
40717;SDS011;26405;51.850;-2.246;2022-12-18T00:35:52;16.65;;;6.82;;
40717;SDS011;26405;51.850;-2.246;2022-12-18T00:38:17;16.55;;;6.68;;
40717;SDS011;26405;51.850;-2.246;2022-12-18T00:40:43;16.15;;;6.47;;
40717;SDS011;26405;51.850;-2.246;2022-12-18T00:43:08;21.08;;;7.85;;
40717;SDS011;26405;51.850;-2.246;2022-12-18T00:45:33;21.23;;;9.50;;
40717;SDS011;26405;51.850;-2.246;2022-12-18T00:47:59;23.05;;;10.48;;
40717;SDS011;26405;51.850;-2.246;2022-12-18T00:50:24;32.03;;;17.95;;
40717;SDS011;26405;51.850;-2.246;2022-12-18T00:52:50;27.77;;;13.95;;
40717;SDS011;26405;51.850;-2.246;2022-12-18T00:55:16;26.92;;;13.02;;
40717;SDS011;26405;51.850;-2.246;2022-12-18T00:57:41;25.20;;;11.80;;
40717;SDS011;26405;51.850;-2.246;2022-12-18T01:00:18;25.85;;;11.60;;
40717;SDS011;26405;51.850;-2.246;2022-12-18T01:08:11;25.02;;;12.18;;
40717;SDS011;26405;51.850;-2.246;2022-12-18T01:10:39;29.35;;;13.98;;
40717;SDS011;26405;51.850;-2.246;2022-12-18T01:16:07;23.67;;;10.95;;
40717;SDS011;26405;51.850;-2.246;2022-12-18T01:18:33;19.80;;;8.23;;
40717;SDS011;26405;51.850;-2.246;2022-12-18T01:20:59;18.63;;;7.55;;
40717;SDS011;26405;51.850;-2.246;2022-12-18T01:23:24;16.60;;;6.32;;
40717;SDS011;26405;51.850;-2.246;2022-12-18T01:25:49;16.92;;;6.50;;
40717;SDS011;26405;51.850;-2.246;2022-12-18T01:28:14;16.75;;;6.63;;
40717;SDS011;26405;51.850;-2.246;2022-12-18T01:30:39;17.20;;;6.85;;
40717;SDS011;26405;51.850;-2.246;2022-12-18T01:33:05;14.68;;;5.78;;
40717;SDS011;26405;51.850;-2.246;2022-12-18T01:35:30;19.13;;;6.45;;
40717;SDS011;26405;51.850;-2.246;2022-12-18T01:37:55;16.27;;;6.18;;
40717;SDS011;26405;51.850;-2.246;2022-12-18T01:40:21;16.45;;;6.50;;
40717;SDS011;26405;51.850;-2.246;2022-12-18T01:42:51;20.77;;;8.48;;
40717;SDS011;26405;51.850;-2.246;2022-12-18T01:47:45;19.08;;;7.88;;
40717;SDS011;26405;51.850;-2.246;2022-12-18T01:52:56;22.15;;;8.48;;
40717;SDS011;26405;51.850;-2.246;2022-12-18T01:55:23;22.60;;;9.05;;
40717;SDS011;26405;51.850;-2.246;2022-12-18T01:57:51;21.08;;;7.82;;
40717;SDS011;26405;51.850;-2.246;2022-12-18T02:00:18;18.30;;;7.00;;
40717;SDS011;26405;51.850;-2.246;2022-12-18T02:02:44;18.92;;;7.82;;
40717;SDS011;26405;51.850;-2.246;2022-12-18T02:05:10;21.30;;;8.37;;
40717;SDS011;26405;51.850;-2.246;2022-12-18T02:07:49;17.63;;;7.40;;
40717;SDS011;26405;51.850;-2.246;2022-12-18T02:15:12;18.63;;;6.82;;
40717;SDS011;26405;51.850;-2.246;2022-12-18T02:17:42;16.90;;;6.57;;
40717;SDS011;26405;51.850;-2.246;2022-12-18T02:20:21;19.00;;;7.22;;
40717;SDS011;26405;51.850;-2.246;2022-12-18T02:22:50;20.50;;;7.60;;
40717;SDS011;26405;51.850;-2.246;2022-12-18T02:25:26;14.95;;;6.38;;
40717;SDS011;26405;51.850;-2.246;2022-12-18T02:27:54;18.73;;;6.55;;
40717;SDS011;26405;51.850;-2.246;2022-12-18T02:30:20;17.13;;;6.95;;
40717;SDS011;26405;51.850;-2.246;2022-12-18T02:32:46;17.02;;;6.68;;
40717;SDS011;26405;51.850;-2.246;2022-12-18T02:35:15;15.10;;;6.50;;
40717;SDS011;26405;51.850;-2.246;2022-12-18T02:40:07;16.57;;;6.50;;
40717;SDS011;26405;51.850;-2.246;2022-12-18T02:42:33;14.43;;;5.63;;
40717;SDS011;26405;51.850;-2.246;2022-12-18T02:44:58;16.33;;;6.20;;
40717;SDS011;26405;51.850;-2.246;2022-12-18T02:47:28;17.38;;;6.20;;
40717;SDS011;26405;51.850;-2.246;2022-12-18T02:52:25;16.23;;;6.43;;
40717;SDS011;26405;51.850;-2.246;2022-12-18T02:57:28;16.35;;;6.50;;
40717;SDS011;26405;51.850;-2.246;2022-12-18T03:02:39;15.77;;;6.35;;
40717;SDS011;26405;51.850;-2.246;2022-12-18T03:10:33;15.43;;;6.22;;
40717;SDS011;26405;51.850;-2.246;2022-12-18T03:13:04;17.38;;;6.88;;
40717;SDS011;26405;51.850;-2.246;2022-12-18T03:15:33;15.85;;;6.78;;
40717;SDS011;26405;51.850;-2.246;2022-12-18T03:18:01;17.95;;;7.15;;
40717;SDS011;26405;51.850;-2.246;2022-12-18T03:20:28;17.55;;;6.95;;
40717;SDS011;26405;51.850;-2.246;2022-12-18T03:22:57;17.02;;;6.95;;
40717;SDS011;26405;51.850;-2.246;2022-12-18T03:25:24;17.98;;;7.30;;
40717;SDS011;26405;51.850;-2.246;2022-12-18T03:27:51;17.92;;;7.15;;
40717;SDS011;26405;51.850;-2.246;2022-12-18T03:30:18;17.42;;;7.60;;
40717;SDS011;26405;51.850;-2.246;2022-12-18T03:35:13;17.77;;;7.45;;
40717;SDS011;26405;51.850;-2.246;2022-12-18T03:37:39;19.13;;;7.85;;
40717;SDS011;26405;51.850;-2.246;2022-12-18T03:40:04;18.38;;;7.68;;
40717;SDS011;26405;51.850;-2.246;2022-12-18T03:42:43;18.83;;;7.43;;
40717;SDS011;26405;51.850;-2.246;2022-12-18T03:47:41;17.25;;;7.93;;
40717;SDS011;26405;51.850;-2.246;2022-12-18T03:50:12;17.88;;;8.10;;
40717;SDS011;26405;51.850;-2.246;2022-12-18T03:52:45;18.02;;;7.93;;
40717;SDS011;26405;51.850;-2.246;2022-12-18T03:55:12;19.00;;;8.60;;
40717;SDS011;26405;51.850;-2.246;2022-12-18T03:57:37;21.48;;;9.57;;
40717;SDS011;26405;51.850;-2.246;2022-12-18T04:00:05;20.13;;;9.20;;
40717;SDS011;26405;51.850;-2.246;2022-12-18T04:02:31;18.20;;;8.50;;
40717;SDS011;26405;51.850;-2.246;2022-12-18T04:04:58;17.88;;;8.35;;
40717;SDS011;26405;51.850;-2.246;2022-12-18T04:07:24;18.85;;;8.63;;
40717;SDS011;26405;51.850;-2.246;2022-12-18T04:09:51;20.80;;;8.82;;
40717;SDS011;26405;51.850;-2.246;2022-12-18T04:12:18;19.38;;;8.93;;
40717;SDS011;26405;51.850;-2.246;2022-12-18T04:14:44;19.20;;;8.93;;
40717;SDS011;26405;51.850;-2.246;2022-12-18T04:17:09;18.55;;;9.32;;
40717;SDS011;26405;51.850;-2.246;2022-12-18T04:19:35;18.50;;;9.35;;
40717;SDS011;26405;51.850;-2.246;2022-12-18T04:22:00;21.65;;;10.32;;
40717;SDS011;26405;51.850;-2.246;2022-12-18T04:24:25;19.50;;;9.13;;
40717;SDS011;26405;51.850;-2.246;2022-12-18T04:26:51;21.17;;;10.07;;
40717;SDS011;26405;51.850;-2.246;2022-12-18T04:29:16;22.00;;;10.43;;
40717;SDS011;26405;51.850;-2.246;2022-12-18T04:31:41;20.75;;;10.25;;
40717;SDS011;26405;51.850;-2.246;2022-12-18T04:34:07;18.65;;;9.25;;
40717;SDS011;26405;51.850;-2.246;2022-12-18T04:36:32;21.77;;;9.98;;
40717;SDS011;26405;51.850;-2.246;2022-12-18T04:38:57;20.67;;;9.60;;
40717;SDS011;26405;51.850;-2.246;2022-12-18T04:41:22;21.33;;;9.50;;
40717;SDS011;26405;51.850;-2.246;2022-12-18T04:43:47;21.92;;;9.60;;
40717;SDS011;26405;51.850;-2.246;2022-12-18T04:46:13;20.30;;;9.02;;
40717;SDS011;26405;51.850;-2.246;2022-12-18T04:48:38;19.67;;;9.32;;
40717;SDS011;26405;51.850;-2.246;2022-12-18T04:51:04;18.27;;;9.20;;
40717;SDS011;26405;51.850;-2.246;2022-12-18T04:53:29;19.60;;;8.52;;
40717;SDS011;26405;51.850;-2.246;2022-12-18T04:58:29;18.15;;;8.68;;
40717;SDS011;26405;51.850;-2.246;2022-12-18T05:00:54;20.73;;;9.38;;
40717;SDS011;26405;51.850;-2.246;2022-12-18T05:03:19;20.92;;;9.43;;
40717;SDS011;26405;51.850;-2.246;2022-12-18T05:05:45;20.88;;;9.13;;
40717;SDS011;26405;51.850;-2.246;2022-12-18T05:08:10;19.40;;;9.23;;
40717;SDS011;26405;51.850;-2.246;2022-12-18T05:10:35;19.13;;;9.65;;
40717;SDS011;26405;51.850;-2.246;2022-12-18T05:13:00;18.95;;;9.68;;
40717;SDS011;26405;51.850;-2.246;2022-12-18T05:15:29;20.42;;;9.90;;
40717;SDS011;26405;51.850;-2.246;2022-12-18T05:17:55;22.15;;;10.48;;
40717;SDS011;26405;51.850;-2.246;2022-12-18T05:20:20;19.38;;;9.48;;
40717;SDS011;26405;51.850;-2.246;2022-12-18T05:22:46;19.23;;;9.13;;
40717;SDS011;26405;51.850;-2.246;2022-12-18T05:25:11;21.13;;;9.52;;
40717;SDS011;26405;51.850;-2.246;2022-12-18T05:27:36;19.88;;;9.82;;
40717;SDS011;26405;51.850;-2.246;2022-12-18T05:30:01;20.20;;;9.48;;
40717;SDS011;26405;51.850;-2.246;2022-12-18T05:32:27;21.30;;;9.55;;
40717;SDS011;26405;51.850;-2.246;2022-12-18T05:34:52;20.23;;;9.38;;
40717;SDS011;26405;51.850;-2.246;2022-12-18T05:37:17;21.25;;;9.57;;
40717;SDS011;26405;51.850;-2.246;2022-12-18T05:39:43;19.25;;;8.85;;
40717;SDS011;26405;51.850;-2.246;2022-12-18T05:42:08;21.17;;;9.65;;
40717;SDS011;26405;51.850;-2.246;2022-12-18T05:44:33;21.40;;;9.73;;
40717;SDS011;26405;51.850;-2.246;2022-12-18T05:46:58;20.90;;;9.60;;
40717;SDS011;26405;51.850;-2.246;2022-12-18T05:49:24;19.95;;;9.48;;
40717;SDS011;26405;51.850;-2.246;2022-12-18T05:51:49;22.33;;;9.95;;
40717;SDS011;26405;51.850;-2.246;2022-12-18T05:54:14;20.70;;;9.05;;
40717;SDS011;26405;51.850;-2.246;2022-12-18T05:56:40;19.45;;;8.95;;
40717;SDS011;26405;51.850;-2.246;2022-12-18T05:59:05;21.10;;;9.93;;
40717;SDS011;26405;51.850;-2.246;2022-12-18T06:01:30;21.65;;;9.48;;
40717;SDS011;26405;51.850;-2.246;2022-12-18T06:03:55;20.38;;;9.18;;
40717;SDS011;26405;51.850;-2.246;2022-12-18T06:06:22;20.23;;;9.38;;
40717;SDS011;26405;51.850;-2.246;2022-12-18T06:08:47;22.33;;;9.48;;
40717;SDS011;26405;51.850;-2.246;2022-12-18T06:11:15;20.80;;;9.73;;
40717;SDS011;26405;51.850;-2.246;2022-12-18T06:13:40;20.77;;;9.25;;
40717;SDS011;26405;51.850;-2.246;2022-12-18T06:16:06;20.70;;;10.10;;
40717;SDS011;26405;51.850;-2.246;2022-12-18T06:18:31;23.08;;;10.13;;
40717;SDS011;26405;51.850;-2.246;2022-12-18T06:20:57;20.27;;;9.90;;
40717;SDS011;26405;51.850;-2.246;2022-12-18T06:23:22;22.30;;;9.88;;
40717;SDS011;26405;51.850;-2.246;2022-12-18T06:25:48;19.50;;;9.30;;
40717;SDS011;26405;51.850;-2.246;2022-12-18T06:28:13;21.13;;;10.23;;
40717;SDS011;26405;51.850;-2.246;2022-12-18T06:30:38;20.38;;;9.50;;
40717;SDS011;26405;51.850;-2.246;2022-12-18T06:33:03;21.30;;;9.73;;
40717;SDS011;26405;51.850;-2.246;2022-12-18T06:35:29;25.35;;;11.05;;
40717;SDS011;26405;51.850;-2.246;2022-12-18T06:37:54;21.38;;;10.63;;
40717;SDS011;26405;51.850;-2.246;2022-12-18T06:40:19;24.70;;;10.18;;
40717;SDS011;26405;51.850;-2.246;2022-12-18T06:42:45;22.50;;;10.05;;
40717;SDS011;26405;51.850;-2.246;2022-12-18T06:45:10;20.90;;;10.02;;
40717;SDS011;26405;51.850;-2.246;2022-12-18T06:47:36;21.65;;;9.98;;
40717;SDS011;26405;51.850;-2.246;2022-12-18T06:50:01;20.83;;;10.00;;
40717;SDS011;26405;51.850;-2.246;2022-12-18T06:52:27;20.92;;;9.93;;
40717;SDS011;26405;51.850;-2.246;2022-12-18T06:54:52;22.55;;;10.57;;
40717;SDS011;26405;51.850;-2.246;2022-12-18T06:57:17;22.23;;;10.23;;
40717;SDS011;26405;51.850;-2.246;2022-12-18T06:59:43;23.73;;;11.80;;
40717;SDS011;26405;51.850;-2.246;2022-12-18T07:02:10;22.48;;;10.50;;
40717;SDS011;26405;51.850;-2.246;2022-12-18T07:07:00;23.95;;;11.10;;
40717;SDS011;26405;51.850;-2.246;2022-12-18T07:09:26;22.77;;;11.27;;
40717;SDS011;26405;51.850;-2.246;2022-12-18T07:11:51;21.60;;;10.20;;
40717;SDS011;26405;51.850;-2.246;2022-12-18T07:14:16;21.45;;;10.60;;
40717;SDS011;26405;51.850;-2.246;2022-12-18T07:16:42;22.17;;;10.48;;
40717;SDS011;26405;51.850;-2.246;2022-12-18T07:19:07;22.20;;;10.25;;
40717;SDS011;26405;51.850;-2.246;2022-12-18T07:21:32;21.23;;;10.48;;
40717;SDS011;26405;51.850;-2.246;2022-12-18T07:23:57;21.80;;;10.70;;
40717;SDS011;26405;51.850;-2.246;2022-12-18T07:26:23;22.25;;;10.32;;
40717;SDS011;26405;51.850;-2.246;2022-12-18T07:28:48;21.83;;;10.52;;
40717;SDS011;26405;51.850;-2.246;2022-12-18T07:31:15;21.83;;;9.93;;
40717;SDS011;26405;51.850;-2.246;2022-12-18T07:33:40;21.58;;;10.02;;
40717;SDS011;26405;51.850;-2.246;2022-12-18T07:36:06;22.27;;;10.60;;
40717;SDS011;26405;51.850;-2.246;2022-12-18T07:38:33;22.52;;;10.30;;
40717;SDS011;26405;51.850;-2.246;2022-12-18T07:41:05;19.63;;;9.65;;
40717;SDS011;26405;51.850;-2.246;2022-12-18T07:43:31;22.63;;;10.32;;
40717;SDS011;26405;51.850;-2.246;2022-12-18T07:45:56;22.38;;;9.82;;
40717;SDS011;26405;51.850;-2.246;2022-12-18T07:48:21;21.98;;;9.93;;
40717;SDS011;26405;51.850;-2.246;2022-12-18T07:50:47;22.38;;;10.60;;
40717;SDS011;26405;51.850;-2.246;2022-12-18T07:53:12;21.88;;;10.65;;
40717;SDS011;26405;51.850;-2.246;2022-12-18T07:55:39;21.63;;;10.07;;
40717;SDS011;26405;51.850;-2.246;2022-12-18T07:58:04;22.08;;;9.57;;
40717;SDS011;26405;51.850;-2.246;2022-12-18T08:00:33;21.20;;;9.75;;
40717;SDS011;26405;51.850;-2.246;2022-12-18T08:02:58;23.08;;;9.93;;
40717;SDS011;26405;51.850;-2.246;2022-12-18T08:05:24;21.90;;;10.20;;
40717;SDS011;26405;51.850;-2.246;2022-12-18T08:07:49;21.13;;;10.02;;
40717;SDS011;26405;51.850;-2.246;2022-12-18T08:10:15;22.88;;;10.98;;
40717;SDS011;26405;51.850;-2.246;2022-12-18T08:12:40;20.30;;;9.32;;
40717;SDS011;26405;51.850;-2.246;2022-12-18T08:15:06;20.48;;;9.63;;
40717;SDS011;26405;51.850;-2.246;2022-12-18T08:17:31;22.00;;;10.20;;
40717;SDS011;26405;51.850;-2.246;2022-12-18T08:19:56;20.83;;;9.63;;
40717;SDS011;26405;51.850;-2.246;2022-12-18T08:22:22;21.20;;;9.90;;
40717;SDS011;26405;51.850;-2.246;2022-12-18T08:24:47;22.85;;;9.88;;
40717;SDS011;26405;51.850;-2.246;2022-12-18T08:27:12;20.50;;;9.82;;
40717;SDS011;26405;51.850;-2.246;2022-12-18T08:29:37;21.70;;;9.43;;
40717;SDS011;26405;51.850;-2.246;2022-12-18T08:32:03;21.73;;;9.57;;
40717;SDS011;26405;51.850;-2.246;2022-12-18T08:34:28;20.02;;;8.93;;
40717;SDS011;26405;51.850;-2.246;2022-12-18T08:36:54;20.20;;;9.55;;
40717;SDS011;26405;51.850;-2.246;2022-12-18T08:39:19;22.20;;;9.73;;
40717;SDS011;26405;51.850;-2.246;2022-12-18T08:41:44;23.77;;;10.40;;
40717;SDS011;26405;51.850;-2.246;2022-12-18T08:44:29;21.63;;;9.52;;
40717;SDS011;26405;51.850;-2.246;2022-12-18T08:47:07;24.05;;;10.50;;
40717;SDS011;26405;51.850;-2.246;2022-12-18T08:49:32;20.35;;;8.98;;
40717;SDS011;26405;51.850;-2.246;2022-12-18T08:51:57;19.73;;;9.38;;
40717;SDS011;26405;51.850;-2.246;2022-12-18T08:54:23;23.15;;;9.88;;
40717;SDS011;26405;51.850;-2.246;2022-12-18T08:56:48;21.60;;;9.50;;
40717;SDS011;26405;51.850;-2.246;2022-12-18T08:59:14;19.65;;;9.52;;
40717;SDS011;26405;51.850;-2.246;2022-12-18T09:01:40;22.08;;;8.90;;
40717;SDS011;26405;51.850;-2.246;2022-12-18T09:04:05;25.45;;;8.88;;
40717;SDS011;26405;51.850;-2.246;2022-12-18T09:06:30;20.10;;;9.07;;
40717;SDS011;26405;51.850;-2.246;2022-12-18T09:08:56;20.50;;;9.63;;
40717;SDS011;26405;51.850;-2.246;2022-12-18T09:11:23;20.00;;;9.02;;
40717;SDS011;26405;51.850;-2.246;2022-12-18T09:13:48;19.92;;;8.95;;
40717;SDS011;26405;51.850;-2.246;2022-12-18T09:16:14;22.45;;;9.90;;
40717;SDS011;26405;51.850;-2.246;2022-12-18T09:18:40;17.50;;;7.80;;
40717;SDS011;26405;51.850;-2.246;2022-12-18T09:21:15;22.25;;;10.20;;
40717;SDS011;26405;51.850;-2.246;2022-12-18T09:23:41;20.27;;;8.80;;
40717;SDS011;26405;51.850;-2.246;2022-12-18T09:26:06;21.48;;;9.32;;
40717;SDS011;26405;51.850;-2.246;2022-12-18T09:28:32;22.33;;;9.57;;
40717;SDS011;26405;51.850;-2.246;2022-12-18T09:30:57;21.55;;;9.95;;
40717;SDS011;26405;51.850;-2.246;2022-12-18T09:33:23;19.98;;;8.90;;
40717;SDS011;26405;51.850;-2.246;2022-12-18T09:35:48;18.42;;;8.32;;
40717;SDS011;26405;51.850;-2.246;2022-12-18T09:38:15;19.38;;;8.77;;
40717;SDS011;26405;51.850;-2.246;2022-12-18T09:40:44;19.63;;;8.52;;
40717;SDS011;26405;51.850;-2.246;2022-12-18T09:43:29;19.17;;;8.32;;
40717;SDS011;26405;51.850;-2.246;2022-12-18T09:45:57;19.50;;;8.80;;
40717;SDS011;26405;51.850;-2.246;2022-12-18T09:48:40;20.42;;;8.88;;
40717;SDS011;26405;51.850;-2.246;2022-12-18T09:51:11;20.50;;;8.63;;
40717;SDS011;26405;51.850;-2.246;2022-12-18T09:53:38;20.65;;;8.32;;
40717;SDS011;26405;51.850;-2.246;2022-12-18T09:56:05;19.73;;;8.70;;
40717;SDS011;26405;51.850;-2.246;2022-12-18T09:58:31;20.67;;;9.40;;
40717;SDS011;26405;51.850;-2.246;2022-12-18T10:00:58;20.27;;;8.57;;
40717;SDS011;26405;51.850;-2.246;2022-12-18T10:03:23;20.40;;;9.05;;
40717;SDS011;26405;51.850;-2.246;2022-12-18T10:11:12;18.25;;;7.45;;
40717;SDS011;26405;51.850;-2.246;2022-12-18T10:13:49;20.25;;;8.90;;
40717;SDS011;26405;51.850;-2.246;2022-12-18T10:16:37;18.33;;;7.85;;
40717;SDS011;26405;51.850;-2.246;2022-12-18T10:24:08;21.13;;;8.70;;
40717;SDS011;26405;51.850;-2.246;2022-12-18T10:26:36;24.25;;;9.07;;
40717;SDS011;26405;51.850;-2.246;2022-12-18T10:29:01;19.65;;;8.70;;
40717;SDS011;26405;51.850;-2.246;2022-12-18T10:31:27;19.08;;;8.35;;
40717;SDS011;26405;51.850;-2.246;2022-12-18T10:33:55;19.67;;;8.82;;
40717;SDS011;26405;51.850;-2.246;2022-12-18T10:36:20;18.65;;;7.60;;
40717;SDS011;26405;51.850;-2.246;2022-12-18T10:38:46;21.30;;;8.65;;
40717;SDS011;26405;51.850;-2.246;2022-12-18T10:43:42;28.30;;;13.98;;
40717;SDS011;26405;51.850;-2.246;2022-12-18T10:48:34;27.30;;;13.48;;
40717;SDS011;26405;51.850;-2.246;2022-12-18T10:51:00;23.95;;;10.55;;
40717;SDS011;26405;51.850;-2.246;2022-12-18T10:53:28;21.60;;;9.25;;
40717;SDS011;26405;51.850;-2.246;2022-12-18T10:55:55;20.27;;;8.85;;
40717;SDS011;26405;51.850;-2.246;2022-12-18T10:58:28;21.67;;;9.40;;
40717;SDS011;26405;51.850;-2.246;2022-12-18T11:06:10;19.67;;;8.90;;
40717;SDS011;26405;51.850;-2.246;2022-12-18T11:08:36;19.10;;;9.27;;
40717;SDS011;26405;51.850;-2.246;2022-12-18T11:11:01;19.60;;;8.82;;
40717;SDS011;26405;51.850;-2.246;2022-12-18T11:13:28;19.35;;;8.75;;
40717;SDS011;26405;51.850;-2.246;2022-12-18T11:15:54;20.02;;;8.93;;
40717;SDS011;26405;51.850;-2.246;2022-12-18T11:18:30;19.00;;;8.75;;
40717;SDS011;26405;51.850;-2.246;2022-12-18T11:20:57;20.77;;;8.55;;
40717;SDS011;26405;51.850;-2.246;2022-12-18T11:25:56;19.20;;;8.47;;
40717;SDS011;26405;51.850;-2.246;2022-12-18T11:33:37;19.08;;;8.30;;
40717;SDS011;26405;51.850;-2.246;2022-12-18T11:36:04;20.02;;;8.55;;
40717;SDS011;26405;51.850;-2.246;2022-12-18T11:38:41;19.20;;;8.55;;
40717;SDS011;26405;51.850;-2.246;2022-12-18T11:43:38;17.48;;;7.35;;
40717;SDS011;26405;51.850;-2.246;2022-12-18T11:46:07;19.25;;;9.23;;
40717;SDS011;26405;51.850;-2.246;2022-12-18T11:48:38;20.35;;;8.55;;
40717;SDS011;26405;51.850;-2.246;2022-12-18T11:51:09;18.27;;;7.70;;
40717;SDS011;26405;51.850;-2.246;2022-12-18T11:53:36;19.38;;;8.52;;
40717;SDS011;26405;51.850;-2.246;2022-12-18T11:58:51;18.60;;;7.90;;
40717;SDS011;26405;51.850;-2.246;2022-12-18T12:06:21;19.00;;;8.30;;
40717;SDS011;26405;51.850;-2.246;2022-12-18T12:14:01;18.90;;;7.53;;
40717;SDS011;26405;51.850;-2.246;2022-12-18T12:16:50;18.85;;;8.07;;
40717;SDS011;26405;51.850;-2.246;2022-12-18T12:27:20;18.40;;;8.18;;
40717;SDS011;26405;51.850;-2.246;2022-12-18T12:39:35;14.85;;;6.32;;
40717;SDS011;26405;51.850;-2.246;2022-12-18T12:42:02;13.35;;;6.30;;
40717;SDS011;26405;51.850;-2.246;2022-12-18T12:44:48;17.73;;;8.43;;
40717;SDS011;26405;51.850;-2.246;2022-12-18T12:49:40;18.90;;;8.97;;
40717;SDS011;26405;51.850;-2.246;2022-12-18T12:52:10;24.52;;;13.73;;
40717;SDS011;26405;51.850;-2.246;2022-12-18T12:54:37;14.85;;;6.63;;
40717;SDS011;26405;51.850;-2.246;2022-12-18T12:57:11;16.40;;;6.45;;
40717;SDS011;26405;51.850;-2.246;2022-12-18T12:59:49;14.95;;;5.97;;
40717;SDS011;26405;51.850;-2.246;2022-12-18T13:04:57;11.88;;;5.13;;
40717;SDS011;26405;51.850;-2.246;2022-12-18T13:07:27;9.30;;;4.45;;
40717;SDS011;26405;51.850;-2.246;2022-12-18T13:12:57;11.48;;;5.18;;
40717;SDS011;26405;51.850;-2.246;2022-12-18T13:15:29;14.95;;;5.20;;
40717;SDS011;26405;51.850;-2.246;2022-12-18T13:18:28;11.05;;;5.00;;
40717;SDS011;26405;51.850;-2.246;2022-12-18T13:25:51;7.63;;;3.92;;
40717;SDS011;26405;51.850;-2.246;2022-12-18T13:31:01;7.60;;;4.00;;
40717;SDS011;26405;51.850;-2.246;2022-12-18T13:33:34;7.32;;;4.03;;
40717;SDS011;26405;51.850;-2.246;2022-12-18T13:36:02;8.45;;;3.75;;
40717;SDS011;26405;51.850;-2.246;2022-12-18T13:41:41;6.03;;;3.40;;
40717;SDS011;26405;51.850;-2.246;2022-12-18T13:43:45;7.57;;;3.72;;
40717;SDS011;26405;51.850;-2.246;2022-12-18T13:47:24;5.28;;;2.95;;
40717;SDS011;26405;51.850;-2.246;2022-12-18T13:51:38;5.07;;;2.67;;
40717;SDS011;26405;51.850;-2.246;2022-12-18T13:56:30;4.22;;;2.63;;
40717;SDS011;26405;51.850;-2.246;2022-12-18T13:59:08;3.80;;;2.55;;
40717;SDS011;26405;51.850;-2.246;2022-12-18T14:01:35;4.18;;;2.67;;
40717;SDS011;26405;51.850;-2.246;2022-12-18T14:06:45;4.30;;;2.28;;
40717;SDS011;26405;51.850;-2.246;2022-12-18T14:09:15;4.28;;;2.42;;
40717;SDS011;26405;51.850;-2.246;2022-12-18T14:11:40;3.67;;;1.98;;
40717;SDS011;26405;51.850;-2.246;2022-12-18T14:14:12;4.15;;;2.22;;
40717;SDS011;26405;51.850;-2.246;2022-12-18T14:16:38;3.85;;;2.35;;
40717;SDS011;26405;51.850;-2.246;2022-12-18T14:19:08;4.05;;;2.20;;
40717;SDS011;26405;51.850;-2.246;2022-12-18T14:21:35;6.13;;;2.90;;
40717;SDS011;26405;51.850;-2.246;2022-12-18T14:26:33;4.63;;;2.83;;
40717;SDS011;26405;51.850;-2.246;2022-12-18T14:28:59;4.82;;;2.35;;
40717;SDS011;26405;51.850;-2.246;2022-12-18T14:31:29;6.15;;;2.47;;
40717;SDS011;26405;51.850;-2.246;2022-12-18T14:33:55;3.43;;;1.90;;
40717;SDS011;26405;51.850;-2.246;2022-12-18T14:36:24;4.15;;;2.30;;
40717;SDS011;26405;51.850;-2.246;2022-12-18T14:38:53;3.40;;;1.63;;
40717;SDS011;26405;51.850;-2.246;2022-12-18T14:41:20;1.60;;;1.50;;
40717;SDS011;26405;51.850;-2.246;2022-12-18T14:43:52;2.03;;;1.20;;
40717;SDS011;26405;51.850;-2.246;2022-12-18T14:46:35;1.85;;;1.40;;
40717;SDS011;26405;51.850;-2.246;2022-12-18T14:49:23;2.15;;;1.40;;
40717;SDS011;26405;51.850;-2.246;2022-12-18T14:51:47;2.83;;;1.73;;
40717;SDS011;26405;51.850;-2.246;2022-12-18T14:54:16;1.52;;;1.40;;
40717;SDS011;26405;51.850;-2.246;2022-12-18T14:56:46;1.80;;;1.50;;
40717;SDS011;26405;51.850;-2.246;2022-12-18T14:59:13;1.40;;;1.30;;
40717;SDS011;26405;51.850;-2.246;2022-12-18T15:07:06;2.50;;;1.70;;
40717;SDS011;26405;51.850;-2.246;2022-12-18T15:09:33;1.58;;;1.48;;
40717;SDS011;26405;51.850;-2.246;2022-12-18T15:11:59;2.58;;;1.58;;
40717;SDS011;26405;51.850;-2.246;2022-12-18T15:21:58;1.27;;;1.17;;
40717;SDS011;26405;51.850;-2.246;2022-12-18T15:24:25;2.15;;;1.20;;
40717;SDS011;26405;51.850;-2.246;2022-12-18T15:26:51;1.95;;;1.38;;
40717;SDS011;26405;51.850;-2.246;2022-12-18T15:29:20;2.58;;;1.63;;
40717;SDS011;26405;51.850;-2.246;2022-12-18T15:31:57;1.88;;;1.40;;
40717;SDS011;26405;51.850;-2.246;2022-12-18T15:34:23;1.83;;;1.38;;
40717;SDS011;26405;51.850;-2.246;2022-12-18T15:36:49;1.50;;;1.40;;
40717;SDS011;26405;51.850;-2.246;2022-12-18T15:39:15;1.03;;;1.03;;
40717;SDS011;26405;51.850;-2.246;2022-12-18T15:41:40;1.27;;;1.17;;
40717;SDS011;26405;51.850;-2.246;2022-12-18T15:44:25;1.63;;;1.50;;
40717;SDS011;26405;51.850;-2.246;2022-12-18T15:46:51;2.28;;;1.52;;
40717;SDS011;26405;51.850;-2.246;2022-12-18T15:49:16;1.38;;;1.27;;
40717;SDS011;26405;51.850;-2.246;2022-12-18T15:51:41;2.67;;;1.27;;
40717;SDS011;26405;51.850;-2.246;2022-12-18T15:54:09;1.80;;;1.30;;
40717;SDS011;26405;51.850;-2.246;2022-12-18T15:56:36;1.13;;;1.02;;
40717;SDS011;26405;51.850;-2.246;2022-12-18T15:59:20;1.63;;;1.40;;
40717;SDS011;26405;51.850;-2.246;2022-12-18T16:01:46;1.83;;;1.50;;
40717;SDS011;26405;51.850;-2.246;2022-12-18T16:04:13;1.52;;;1.08;;
40717;SDS011;26405;51.850;-2.246;2022-12-18T16:06:39;1.83;;;1.15;;
40717;SDS011;26405;51.850;-2.246;2022-12-18T16:09:04;1.55;;;1.17;;
40717;SDS011;26405;51.850;-2.246;2022-12-18T16:11:31;4.07;;;1.40;;
40717;SDS011;26405;51.850;-2.246;2022-12-18T16:14:16;1.13;;;1.02;;
40717;SDS011;26405;51.850;-2.246;2022-12-18T16:16:42;1.20;;;1.10;;
40717;SDS011;26405;51.850;-2.246;2022-12-18T16:19:08;1.20;;;1.10;;
40717;SDS011;26405;51.850;-2.246;2022-12-18T16:21:34;2.08;;;1.70;;
40717;SDS011;26405;51.850;-2.246;2022-12-18T16:23:59;2.55;;;2.00;;
40717;SDS011;26405;51.850;-2.246;2022-12-18T16:26:25;2.00;;;1.63;;
40717;SDS011;26405;51.850;-2.246;2022-12-18T16:28:50;3.50;;;1.90;;
40717;SDS011;26405;51.850;-2.246;2022-12-18T16:31:15;4.70;;;2.83;;
40717;SDS011;26405;51.850;-2.246;2022-12-18T16:33:40;3.55;;;2.30;;
40717;SDS011;26405;51.850;-2.246;2022-12-18T16:36:06;4.80;;;2.53;;
40717;SDS011;26405;51.850;-2.246;2022-12-18T16:38:32;4.03;;;2.40;;
40717;SDS011;26405;51.850;-2.246;2022-12-18T16:40:57;4.32;;;2.47;;
40717;SDS011;26405;51.850;-2.246;2022-12-18T16:43:41;5.18;;;2.60;;
40717;SDS011;26405;51.850;-2.246;2022-12-18T16:46:06;2.83;;;2.20;;
40717;SDS011;26405;51.850;-2.246;2022-12-18T16:48:31;4.88;;;2.30;;
40717;SDS011;26405;51.850;-2.246;2022-12-18T16:51:00;2.38;;;1.80;;